sensor_id;sensor_type;location;lat;lon;timestamp;P1;durP1;ratioP1;P2;durP2;ratioP2
43487;SDS011;29078;41.932;25.554;2023-03-24T00:00:16;24.45;;;20.77;;
43487;SDS011;29078;41.932;25.554;2023-03-24T00:02:44;23.77;;;19.80;;
43487;SDS011;29078;41.932;25.554;2023-03-24T00:05:14;27.95;;;23.30;;
43487;SDS011;29078;41.932;25.554;2023-03-24T00:10:12;27.27;;;20.88;;
43487;SDS011;29078;41.932;25.554;2023-03-24T00:12:40;22.80;;;19.23;;
43487;SDS011;29078;41.932;25.554;2023-03-24T00:15:08;20.92;;;18.50;;
43487;SDS011;29078;41.932;25.554;2023-03-24T00:17:37;21.80;;;18.38;;
43487;SDS011;29078;41.932;25.554;2023-03-24T00:20:07;19.42;;;17.30;;
43487;SDS011;29078;41.932;25.554;2023-03-24T00:22:43;20.13;;;17.58;;
43487;SDS011;29078;41.932;25.554;2023-03-24T00:25:16;18.92;;;17.08;;
43487;SDS011;29078;41.932;25.554;2023-03-24T00:27:43;20.27;;;18.10;;
43487;SDS011;29078;41.932;25.554;2023-03-24T00:30:09;21.15;;;18.05;;
43487;SDS011;29078;41.932;25.554;2023-03-24T00:32:36;22.60;;;18.27;;
43487;SDS011;29078;41.932;25.554;2023-03-24T00:35:06;23.55;;;19.05;;
43487;SDS011;29078;41.932;25.554;2023-03-24T00:37:34;20.83;;;18.52;;
43487;SDS011;29078;41.932;25.554;2023-03-24T00:40:02;25.10;;;19.95;;
43487;SDS011;29078;41.932;25.554;2023-03-24T00:42:34;36.10;;;26.42;;
43487;SDS011;29078;41.932;25.554;2023-03-24T00:45:01;23.13;;;19.65;;
43487;SDS011;29078;41.932;25.554;2023-03-24T00:47:31;20.63;;;17.17;;
43487;SDS011;29078;41.932;25.554;2023-03-24T00:50:01;18.63;;;16.38;;
43487;SDS011;29078;41.932;25.554;2023-03-24T00:52:31;20.05;;;16.63;;
43487;SDS011;29078;41.932;25.554;2023-03-24T00:55:00;17.00;;;15.20;;
43487;SDS011;29078;41.932;25.554;2023-03-24T00:57:28;18.30;;;15.52;;
43487;SDS011;29078;41.932;25.554;2023-03-24T00:59:58;17.48;;;15.43;;
43487;SDS011;29078;41.932;25.554;2023-03-24T01:02:35;16.52;;;14.68;;
43487;SDS011;29078;41.932;25.554;2023-03-24T01:05:00;21.25;;;16.48;;
43487;SDS011;29078;41.932;25.554;2023-03-24T01:07:27;18.10;;;15.50;;
43487;SDS011;29078;41.932;25.554;2023-03-24T01:09:54;16.67;;;14.32;;
43487;SDS011;29078;41.932;25.554;2023-03-24T01:12:24;15.55;;;13.88;;
43487;SDS011;29078;41.932;25.554;2023-03-24T01:14:50;16.00;;;13.48;;
43487;SDS011;29078;41.932;25.554;2023-03-24T01:17:17;16.17;;;14.48;;
43487;SDS011;29078;41.932;25.554;2023-03-24T01:19:43;17.08;;;13.75;;
43487;SDS011;29078;41.932;25.554;2023-03-24T01:22:09;18.70;;;15.65;;
43487;SDS011;29078;41.932;25.554;2023-03-24T01:24:35;19.63;;;15.50;;
43487;SDS011;29078;41.932;25.554;2023-03-24T01:27:01;18.40;;;15.13;;
43487;SDS011;29078;41.932;25.554;2023-03-24T01:29:27;22.30;;;15.27;;
43487;SDS011;29078;41.932;25.554;2023-03-24T01:31:52;18.80;;;14.77;;
43487;SDS011;29078;41.932;25.554;2023-03-24T01:34:18;18.45;;;14.43;;
43487;SDS011;29078;41.932;25.554;2023-03-24T01:36:43;17.58;;;14.65;;
43487;SDS011;29078;41.932;25.554;2023-03-24T01:39:09;15.80;;;14.10;;
43487;SDS011;29078;41.932;25.554;2023-03-24T01:41:36;16.50;;;13.93;;
43487;SDS011;29078;41.932;25.554;2023-03-24T01:46:55;16.80;;;14.55;;
43487;SDS011;29078;41.932;25.554;2023-03-24T01:49:22;20.98;;;14.63;;
43487;SDS011;29078;41.932;25.554;2023-03-24T01:51:53;16.48;;;13.98;;
43487;SDS011;29078;41.932;25.554;2023-03-24T01:54:29;17.30;;;14.88;;
43487;SDS011;29078;41.932;25.554;2023-03-24T01:59:50;17.63;;;14.05;;
43487;SDS011;29078;41.932;25.554;2023-03-24T02:02:19;17.20;;;14.98;;
43487;SDS011;29078;41.932;25.554;2023-03-24T02:04:51;18.77;;;15.05;;
43487;SDS011;29078;41.932;25.554;2023-03-24T02:10:08;16.45;;;14.65;;
43487;SDS011;29078;41.932;25.554;2023-03-24T02:12:37;15.85;;;12.50;;
43487;SDS011;29078;41.932;25.554;2023-03-24T02:15:04;15.23;;;13.63;;
43487;SDS011;29078;41.932;25.554;2023-03-24T02:34:00;16.77;;;11.10;;
43487;SDS011;29078;41.932;25.554;2023-03-24T02:47:02;19.42;;;13.40;;
43487;SDS011;29078;41.932;25.554;2023-03-24T02:52:39;16.00;;;13.33;;
43487;SDS011;29078;41.932;25.554;2023-03-24T02:55:15;18.58;;;13.43;;
43487;SDS011;29078;41.932;25.554;2023-03-24T03:00:51;15.18;;;12.80;;
43487;SDS011;29078;41.932;25.554;2023-03-24T03:03:24;15.00;;;12.55;;
43487;SDS011;29078;41.932;25.554;2023-03-24T03:08:33;14.95;;;12.35;;
43487;SDS011;29078;41.932;25.554;2023-03-24T03:11:01;35.10;;;23.13;;
43487;SDS011;29078;41.932;25.554;2023-03-24T03:13:30;21.45;;;16.02;;
43487;SDS011;29078;41.932;25.554;2023-03-24T03:16:03;19.30;;;16.48;;
43487;SDS011;29078;41.932;25.554;2023-03-24T03:18:43;21.23;;;17.67;;
43487;SDS011;29078;41.932;25.554;2023-03-24T03:21:16;19.75;;;16.27;;
43487;SDS011;29078;41.932;25.554;2023-03-24T03:24:20;18.23;;;15.15;;
43487;SDS011;29078;41.932;25.554;2023-03-24T03:27:04;19.35;;;15.13;;
43487;SDS011;29078;41.932;25.554;2023-03-24T03:29:35;17.45;;;13.70;;
43487;SDS011;29078;41.932;25.554;2023-03-24T03:32:05;17.58;;;14.50;;
43487;SDS011;29078;41.932;25.554;2023-03-24T03:37:15;16.30;;;12.57;;
43487;SDS011;29078;41.932;25.554;2023-03-24T03:39:48;15.57;;;13.02;;
43487;SDS011;29078;41.932;25.554;2023-03-24T03:42:20;14.52;;;13.02;;
43487;SDS011;29078;41.932;25.554;2023-03-24T03:44:46;15.60;;;13.25;;
43487;SDS011;29078;41.932;25.554;2023-03-24T03:47:12;23.35;;;17.35;;
43487;SDS011;29078;41.932;25.554;2023-03-24T03:49:39;20.05;;;16.27;;
43487;SDS011;29078;41.932;25.554;2023-03-24T03:52:04;17.15;;;15.15;;
43487;SDS011;29078;41.932;25.554;2023-03-24T03:54:30;15.07;;;13.50;;
43487;SDS011;29078;41.932;25.554;2023-03-24T03:56:57;13.50;;;12.10;;
43487;SDS011;29078;41.932;25.554;2023-03-24T03:59:25;13.10;;;11.70;;
43487;SDS011;29078;41.932;25.554;2023-03-24T04:01:57;13.02;;;11.60;;
43487;SDS011;29078;41.932;25.554;2023-03-24T04:07:27;14.48;;;12.02;;
43487;SDS011;29078;41.932;25.554;2023-03-24T04:10:10;14.23;;;12.60;;
43487;SDS011;29078;41.932;25.554;2023-03-24T04:15:44;34.13;;;22.08;;
43487;SDS011;29078;41.932;25.554;2023-03-24T04:21:01;19.95;;;15.50;;
43487;SDS011;29078;41.932;25.554;2023-03-24T04:34:43;16.73;;;13.07;;
43487;SDS011;29078;41.932;25.554;2023-03-24T04:37:18;18.77;;;13.60;;
43487;SDS011;29078;41.932;25.554;2023-03-24T04:39:48;17.05;;;13.68;;
43487;SDS011;29078;41.932;25.554;2023-03-24T04:42:22;15.35;;;12.00;;
43487;SDS011;29078;41.932;25.554;2023-03-24T04:44:51;14.02;;;11.25;;
43487;SDS011;29078;41.932;25.554;2023-03-24T04:47:21;14.00;;;12.20;;
43487;SDS011;29078;41.932;25.554;2023-03-24T04:49:50;18.45;;;14.48;;
43487;SDS011;29078;41.932;25.554;2023-03-24T04:52:15;21.98;;;17.70;;
43487;SDS011;29078;41.932;25.554;2023-03-24T04:54:41;28.25;;;23.58;;
43487;SDS011;29078;41.932;25.554;2023-03-24T04:57:06;35.15;;;26.40;;
43487;SDS011;29078;41.932;25.554;2023-03-24T04:59:32;25.30;;;19.17;;
43487;SDS011;29078;41.932;25.554;2023-03-24T05:01:59;26.25;;;21.80;;
43487;SDS011;29078;41.932;25.554;2023-03-24T05:04:25;28.27;;;23.85;;
43487;SDS011;29078;41.932;25.554;2023-03-24T05:06:52;36.63;;;27.75;;
43487;SDS011;29078;41.932;25.554;2023-03-24T05:09:18;31.40;;;26.27;;
43487;SDS011;29078;41.932;25.554;2023-03-24T05:11:45;26.95;;;22.90;;
43487;SDS011;29078;41.932;25.554;2023-03-24T05:14:11;28.60;;;23.17;;
43487;SDS011;29078;41.932;25.554;2023-03-24T05:16:37;25.85;;;21.40;;
43487;SDS011;29078;41.932;25.554;2023-03-24T05:19:03;27.92;;;22.95;;
43487;SDS011;29078;41.932;25.554;2023-03-24T05:21:28;25.52;;;20.30;;
43487;SDS011;29078;41.932;25.554;2023-03-24T05:23:54;31.98;;;22.58;;
43487;SDS011;29078;41.932;25.554;2023-03-24T05:26:20;31.73;;;23.15;;
43487;SDS011;29078;41.932;25.554;2023-03-24T05:28:45;29.52;;;23.15;;
43487;SDS011;29078;41.932;25.554;2023-03-24T05:31:11;24.63;;;20.20;;
43487;SDS011;29078;41.932;25.554;2023-03-24T05:33:36;25.98;;;20.50;;
43487;SDS011;29078;41.932;25.554;2023-03-24T05:36:01;24.90;;;19.02;;
43487;SDS011;29078;41.932;25.554;2023-03-24T05:38:27;25.83;;;19.42;;
43487;SDS011;29078;41.932;25.554;2023-03-24T05:40:56;26.75;;;23.10;;
43487;SDS011;29078;41.932;25.554;2023-03-24T05:43:22;30.05;;;24.15;;
43487;SDS011;29078;41.932;25.554;2023-03-24T05:45:48;32.67;;;26.10;;
43487;SDS011;29078;41.932;25.554;2023-03-24T05:48:13;30.77;;;26.33;;
43487;SDS011;29078;41.932;25.554;2023-03-24T05:50:38;31.23;;;25.73;;
43487;SDS011;29078;41.932;25.554;2023-03-24T05:53:04;23.33;;;19.52;;
43487;SDS011;29078;41.932;25.554;2023-03-24T05:55:29;29.08;;;21.10;;
43487;SDS011;29078;41.932;25.554;2023-03-24T05:57:55;32.55;;;22.95;;
43487;SDS011;29078;41.932;25.554;2023-03-24T06:00:21;36.17;;;25.17;;
43487;SDS011;29078;41.932;25.554;2023-03-24T06:02:47;34.22;;;24.52;;
43487;SDS011;29078;41.932;25.554;2023-03-24T06:05:13;31.70;;;24.05;;
43487;SDS011;29078;41.932;25.554;2023-03-24T06:07:39;37.17;;;27.30;;
43487;SDS011;29078;41.932;25.554;2023-03-24T06:10:07;40.08;;;29.50;;
43487;SDS011;29078;41.932;25.554;2023-03-24T06:12:35;33.70;;;26.40;;
43487;SDS011;29078;41.932;25.554;2023-03-24T06:15:01;34.42;;;26.48;;
43487;SDS011;29078;41.932;25.554;2023-03-24T06:17:28;35.35;;;25.73;;
43487;SDS011;29078;41.932;25.554;2023-03-24T06:19:54;29.08;;;22.42;;
43487;SDS011;29078;41.932;25.554;2023-03-24T06:22:26;27.10;;;22.08;;
43487;SDS011;29078;41.932;25.554;2023-03-24T06:24:53;24.67;;;20.33;;
43487;SDS011;29078;41.932;25.554;2023-03-24T06:27:20;21.35;;;19.02;;
43487;SDS011;29078;41.932;25.554;2023-03-24T06:29:49;23.23;;;20.30;;
43487;SDS011;29078;41.932;25.554;2023-03-24T06:32:17;22.95;;;19.15;;
43487;SDS011;29078;41.932;25.554;2023-03-24T06:34:43;19.40;;;17.30;;
43487;SDS011;29078;41.932;25.554;2023-03-24T06:37:09;18.77;;;16.13;;
43487;SDS011;29078;41.932;25.554;2023-03-24T06:39:34;20.80;;;15.50;;
43487;SDS011;29078;41.932;25.554;2023-03-24T06:42:00;17.52;;;15.48;;
43487;SDS011;29078;41.932;25.554;2023-03-24T06:44:25;17.08;;;14.80;;
43487;SDS011;29078;41.932;25.554;2023-03-24T06:46:51;18.45;;;14.38;;
43487;SDS011;29078;41.932;25.554;2023-03-24T06:49:16;16.33;;;14.05;;
43487;SDS011;29078;41.932;25.554;2023-03-24T06:51:42;18.20;;;15.82;;
43487;SDS011;29078;41.932;25.554;2023-03-24T06:54:07;16.30;;;14.40;;
43487;SDS011;29078;41.932;25.554;2023-03-24T06:56:33;18.08;;;13.57;;
43487;SDS011;29078;41.932;25.554;2023-03-24T06:58:59;19.40;;;14.77;;
43487;SDS011;29078;41.932;25.554;2023-03-24T07:01:25;16.50;;;14.02;;
43487;SDS011;29078;41.932;25.554;2023-03-24T07:03:51;19.25;;;15.05;;
43487;SDS011;29078;41.932;25.554;2023-03-24T07:06:17;21.17;;;17.25;;
43487;SDS011;29078;41.932;25.554;2023-03-24T07:08:43;21.05;;;18.27;;
43487;SDS011;29078;41.932;25.554;2023-03-24T07:11:08;26.08;;;22.05;;
43487;SDS011;29078;41.932;25.554;2023-03-24T07:13:34;22.25;;;18.70;;
43487;SDS011;29078;41.932;25.554;2023-03-24T07:16:01;21.48;;;16.52;;
43487;SDS011;29078;41.932;25.554;2023-03-24T07:18:26;15.90;;;13.00;;
43487;SDS011;29078;41.932;25.554;2023-03-24T07:20:52;19.42;;;16.75;;
43487;SDS011;29078;41.932;25.554;2023-03-24T07:23:17;17.52;;;14.43;;
43487;SDS011;29078;41.932;25.554;2023-03-24T07:25:43;17.98;;;15.13;;
43487;SDS011;29078;41.932;25.554;2023-03-24T07:28:09;19.90;;;17.05;;
43487;SDS011;29078;41.932;25.554;2023-03-24T07:30:35;20.10;;;16.52;;
43487;SDS011;29078;41.932;25.554;2023-03-24T07:33:01;18.23;;;15.73;;
43487;SDS011;29078;41.932;25.554;2023-03-24T07:35:28;19.42;;;17.15;;
43487;SDS011;29078;41.932;25.554;2023-03-24T07:37:57;20.73;;;17.80;;
43487;SDS011;29078;41.932;25.554;2023-03-24T07:40:24;21.27;;;18.25;;
43487;SDS011;29078;41.932;25.554;2023-03-24T07:42:49;24.80;;;20.77;;
43487;SDS011;29078;41.932;25.554;2023-03-24T07:45:15;30.13;;;22.92;;
43487;SDS011;29078;41.932;25.554;2023-03-24T07:47:42;25.98;;;20.95;;
43487;SDS011;29078;41.932;25.554;2023-03-24T07:50:09;26.35;;;22.50;;
43487;SDS011;29078;41.932;25.554;2023-03-24T07:52:39;21.13;;;18.63;;
43487;SDS011;29078;41.932;25.554;2023-03-24T07:55:06;23.92;;;20.83;;
43487;SDS011;29078;41.932;25.554;2023-03-24T07:57:35;22.52;;;20.10;;
43487;SDS011;29078;41.932;25.554;2023-03-24T08:00:05;23.40;;;19.75;;
43487;SDS011;29078;41.932;25.554;2023-03-24T08:02:51;20.67;;;18.48;;
43487;SDS011;29078;41.932;25.554;2023-03-24T08:05:18;21.10;;;18.77;;
43487;SDS011;29078;41.932;25.554;2023-03-24T08:07:48;43.58;;;35.20;;
43487;SDS011;29078;41.932;25.554;2023-03-24T08:10:18;30.48;;;23.80;;
43487;SDS011;29078;41.932;25.554;2023-03-24T08:12:46;26.48;;;23.67;;
43487;SDS011;29078;41.932;25.554;2023-03-24T08:15:12;22.45;;;19.23;;
43487;SDS011;29078;41.932;25.554;2023-03-24T08:17:38;20.92;;;18.80;;
43487;SDS011;29078;41.932;25.554;2023-03-24T08:20:05;19.58;;;17.27;;
43487;SDS011;29078;41.932;25.554;2023-03-24T08:22:32;18.33;;;16.42;;
43487;SDS011;29078;41.932;25.554;2023-03-24T08:24:58;18.17;;;16.27;;
43487;SDS011;29078;41.932;25.554;2023-03-24T08:27:23;18.05;;;15.45;;
43487;SDS011;29078;41.932;25.554;2023-03-24T08:29:48;24.73;;;21.67;;
43487;SDS011;29078;41.932;25.554;2023-03-24T08:32:14;17.13;;;15.32;;
43487;SDS011;29078;41.932;25.554;2023-03-24T08:34:39;15.95;;;14.10;;
43487;SDS011;29078;41.932;25.554;2023-03-24T08:37:05;17.05;;;15.27;;
43487;SDS011;29078;41.932;25.554;2023-03-24T08:39:30;16.85;;;15.15;;
43487;SDS011;29078;41.932;25.554;2023-03-24T08:41:59;14.18;;;12.75;;
43487;SDS011;29078;41.932;25.554;2023-03-24T08:44:25;14.57;;;12.77;;
43487;SDS011;29078;41.932;25.554;2023-03-24T08:46:51;13.68;;;12.38;;
43487;SDS011;29078;41.932;25.554;2023-03-24T08:49:16;12.40;;;11.15;;
43487;SDS011;29078;41.932;25.554;2023-03-24T08:51:42;13.40;;;12.00;;
43487;SDS011;29078;41.932;25.554;2023-03-24T08:54:08;12.02;;;10.93;;
43487;SDS011;29078;41.932;25.554;2023-03-24T08:56:36;14.10;;;12.50;;
43487;SDS011;29078;41.932;25.554;2023-03-24T08:59:02;12.77;;;11.50;;
43487;SDS011;29078;41.932;25.554;2023-03-24T09:01:29;11.52;;;10.38;;
43487;SDS011;29078;41.932;25.554;2023-03-24T09:03:55;12.35;;;11.07;;
43487;SDS011;29078;41.932;25.554;2023-03-24T09:06:21;13.75;;;12.35;;
43487;SDS011;29078;41.932;25.554;2023-03-24T09:08:46;16.63;;;14.98;;
43487;SDS011;29078;41.932;25.554;2023-03-24T09:11:16;13.43;;;11.98;;
43487;SDS011;29078;41.932;25.554;2023-03-24T09:13:43;12.65;;;11.45;;
43487;SDS011;29078;41.932;25.554;2023-03-24T09:16:13;14.00;;;11.35;;
43487;SDS011;29078;41.932;25.554;2023-03-24T09:18:39;10.57;;;9.57;;
43487;SDS011;29078;41.932;25.554;2023-03-24T09:21:05;15.27;;;13.70;;
43487;SDS011;29078;41.932;25.554;2023-03-24T09:23:30;12.32;;;11.13;;
43487;SDS011;29078;41.932;25.554;2023-03-24T09:25:56;11.00;;;9.88;;
43487;SDS011;29078;41.932;25.554;2023-03-24T09:28:23;12.18;;;9.85;;
43487;SDS011;29078;41.932;25.554;2023-03-24T09:30:48;10.55;;;9.45;;
43487;SDS011;29078;41.932;25.554;2023-03-24T09:33:14;15.32;;;13.75;;
43487;SDS011;29078;41.932;25.554;2023-03-24T09:35:40;10.15;;;9.18;;
43487;SDS011;29078;41.932;25.554;2023-03-24T09:38:06;10.32;;;9.25;;
43487;SDS011;29078;41.932;25.554;2023-03-24T09:40:34;9.15;;;8.00;;
43487;SDS011;29078;41.932;25.554;2023-03-24T09:43:11;8.63;;;7.70;;
43487;SDS011;29078;41.932;25.554;2023-03-24T09:45:49;8.07;;;6.82;;
43487;SDS011;29078;41.932;25.554;2023-03-24T09:48:18;8.57;;;7.40;;
43487;SDS011;29078;41.932;25.554;2023-03-24T09:51:11;8.27;;;7.22;;
43487;SDS011;29078;41.932;25.554;2023-03-24T09:56:17;7.30;;;6.63;;
43487;SDS011;29078;41.932;25.554;2023-03-24T09:58:46;7.40;;;6.70;;
43487;SDS011;29078;41.932;25.554;2023-03-24T10:01:25;9.43;;;7.30;;
43487;SDS011;29078;41.932;25.554;2023-03-24T10:03:52;8.43;;;7.63;;
43487;SDS011;29078;41.932;25.554;2023-03-24T10:06:24;7.20;;;6.55;;
43487;SDS011;29078;41.932;25.554;2023-03-24T10:09:16;7.90;;;7.05;;
43487;SDS011;29078;41.932;25.554;2023-03-24T10:11:45;9.07;;;8.18;;
43487;SDS011;29078;41.932;25.554;2023-03-24T10:20:26;8.38;;;7.57;;
43487;SDS011;29078;41.932;25.554;2023-03-24T10:31:47;8.68;;;6.93;;
43487;SDS011;29078;41.932;25.554;2023-03-24T10:34:16;6.97;;;6.35;;
43487;SDS011;29078;41.932;25.554;2023-03-24T10:36:42;9.80;;;8.88;;
43487;SDS011;29078;41.932;25.554;2023-03-24T10:39:15;6.50;;;5.63;;
43487;SDS011;29078;41.932;25.554;2023-03-24T10:41:41;6.88;;;5.97;;
43487;SDS011;29078;41.932;25.554;2023-03-24T10:44:08;7.20;;;6.50;;
43487;SDS011;29078;41.932;25.554;2023-03-24T10:46:36;8.07;;;7.28;;
43487;SDS011;29078;41.932;25.554;2023-03-24T10:49:13;7.35;;;6.65;;
43487;SDS011;29078;41.932;25.554;2023-03-24T10:51:45;6.03;;;5.43;;
43487;SDS011;29078;41.932;25.554;2023-03-24T10:54:18;6.88;;;6.18;;
43487;SDS011;29078;41.932;25.554;2023-03-24T10:56:49;5.03;;;4.50;;
43487;SDS011;29078;41.932;25.554;2023-03-24T11:02:14;5.20;;;4.70;;
43487;SDS011;29078;41.932;25.554;2023-03-24T11:04:43;6.93;;;4.60;;
43487;SDS011;29078;41.932;25.554;2023-03-24T11:07:18;5.70;;;4.43;;
43487;SDS011;29078;41.932;25.554;2023-03-24T11:10:00;5.10;;;4.60;;
43487;SDS011;29078;41.932;25.554;2023-03-24T11:12:27;5.68;;;5.10;;
43487;SDS011;29078;41.932;25.554;2023-03-24T11:17:41;5.25;;;4.30;;
43487;SDS011;29078;41.932;25.554;2023-03-24T11:23:28;4.95;;;4.45;;
43487;SDS011;29078;41.932;25.554;2023-03-24T11:25:34;4.40;;;4.00;;
43487;SDS011;29078;41.932;25.554;2023-03-24T11:28:05;7.57;;;5.28;;
43487;SDS011;29078;41.932;25.554;2023-03-24T11:33:33;5.78;;;5.15;;
43487;SDS011;29078;41.932;25.554;2023-03-24T11:36:04;8.20;;;7.50;;
43487;SDS011;29078;41.932;25.554;2023-03-24T11:41:49;5.70;;;5.10;;
43487;SDS011;29078;41.932;25.554;2023-03-24T11:44:29;11.90;;;7.03;;
43487;SDS011;29078;41.932;25.554;2023-03-24T11:47:11;6.60;;;6.00;;
43487;SDS011;29078;41.932;25.554;2023-03-24T11:49:45;10.35;;;9.25;;
43487;SDS011;29078;41.932;25.554;2023-03-24T11:52:23;7.50;;;6.60;;
43487;SDS011;29078;41.932;25.554;2023-03-24T11:54:54;6.10;;;5.50;;
43487;SDS011;29078;41.932;25.554;2023-03-24T11:57:25;6.82;;;5.90;;
43487;SDS011;29078;41.932;25.554;2023-03-24T12:00:17;5.43;;;4.93;;
43487;SDS011;29078;41.932;25.554;2023-03-24T12:03:00;5.45;;;4.20;;
43487;SDS011;29078;41.932;25.554;2023-03-24T12:05:51;5.63;;;5.13;;
43487;SDS011;29078;41.932;25.554;2023-03-24T12:08:38;5.22;;;4.72;;
43487;SDS011;29078;41.932;25.554;2023-03-24T12:11:26;4.90;;;4.40;;
43487;SDS011;29078;41.932;25.554;2023-03-24T12:13:57;5.93;;;4.75;;
43487;SDS011;29078;41.932;25.554;2023-03-24T12:16:50;3.78;;;3.47;;
43487;SDS011;29078;41.932;25.554;2023-03-24T12:19:40;4.35;;;3.80;;
43487;SDS011;29078;41.932;25.554;2023-03-24T12:41:30;6.53;;;4.35;;
43487;SDS011;29078;41.932;25.554;2023-03-24T12:46:38;4.18;;;3.78;;
43487;SDS011;29078;41.932;25.554;2023-03-24T12:49:39;4.70;;;4.30;;
43487;SDS011;29078;41.932;25.554;2023-03-24T12:52:34;5.65;;;3.80;;
43487;SDS011;29078;41.932;25.554;2023-03-24T12:57:49;4.40;;;4.00;;
43487;SDS011;29078;41.932;25.554;2023-03-24T13:00:33;4.95;;;4.55;;
43487;SDS011;29078;41.932;25.554;2023-03-24T13:03:24;4.75;;;3.80;;
43487;SDS011;29078;41.932;25.554;2023-03-24T13:05:55;6.82;;;4.75;;
43487;SDS011;29078;41.932;25.554;2023-03-24T13:08:23;4.10;;;3.80;;
43487;SDS011;29078;41.932;25.554;2023-03-24T13:10:57;4.07;;;3.67;;
43487;SDS011;29078;41.932;25.554;2023-03-24T13:13:30;5.18;;;4.57;;
43487;SDS011;29078;41.932;25.554;2023-03-24T13:16:02;8.88;;;7.32;;
43487;SDS011;29078;41.932;25.554;2023-03-24T13:18:36;7.78;;;7.00;;
43487;SDS011;29078;41.932;25.554;2023-03-24T13:23:40;4.65;;;4.13;;
43487;SDS011;29078;41.932;25.554;2023-03-24T13:26:09;5.55;;;4.20;;
43487;SDS011;29078;41.932;25.554;2023-03-24T13:31:48;4.93;;;3.92;;
43487;SDS011;29078;41.932;25.554;2023-03-24T13:36:55;7.30;;;4.35;;
43487;SDS011;29078;41.932;25.554;2023-03-24T13:39:30;6.75;;;4.72;;
43487;SDS011;29078;41.932;25.554;2023-03-24T13:41:59;6.72;;;5.97;;
43487;SDS011;29078;41.932;25.554;2023-03-24T13:44:36;4.32;;;3.72;;
43487;SDS011;29078;41.932;25.554;2023-03-24T13:47:07;4.57;;;4.18;;
43487;SDS011;29078;41.932;25.554;2023-03-24T13:49:36;6.32;;;3.90;;
43487;SDS011;29078;41.932;25.554;2023-03-24T13:52:05;4.35;;;3.67;;
43487;SDS011;29078;41.932;25.554;2023-03-24T13:54:44;3.85;;;3.38;;
43487;SDS011;29078;41.932;25.554;2023-03-24T13:57:19;4.07;;;3.67;;
43487;SDS011;29078;41.932;25.554;2023-03-24T14:00:01;4.93;;;4.53;;
43487;SDS011;29078;41.932;25.554;2023-03-24T14:02:54;6.38;;;5.30;;
43487;SDS011;29078;41.932;25.554;2023-03-24T14:08:09;5.68;;;3.88;;
43487;SDS011;29078;41.932;25.554;2023-03-24T14:21:02;5.50;;;4.78;;
43487;SDS011;29078;41.932;25.554;2023-03-24T14:26:05;5.32;;;4.82;;
43487;SDS011;29078;41.932;25.554;2023-03-24T14:28:42;5.18;;;4.78;;
43487;SDS011;29078;41.932;25.554;2023-03-24T14:36:39;6.97;;;6.25;;
43487;SDS011;29078;41.932;25.554;2023-03-24T14:41:53;8.10;;;7.25;;
43487;SDS011;29078;41.932;25.554;2023-03-24T14:47:36;4.90;;;4.40;;
43487;SDS011;29078;41.932;25.554;2023-03-24T14:50:16;6.20;;;5.60;;
43487;SDS011;29078;41.932;25.554;2023-03-24T14:53:03;5.70;;;5.00;;
43487;SDS011;29078;41.932;25.554;2023-03-24T14:55:28;5.20;;;4.65;;
43487;SDS011;29078;41.932;25.554;2023-03-24T14:58:03;6.03;;;4.88;;
43487;SDS011;29078;41.932;25.554;2023-03-24T15:00:43;13.77;;;12.32;;
43487;SDS011;29078;41.932;25.554;2023-03-24T15:06:13;10.52;;;9.43;;
43487;SDS011;29078;41.932;25.554;2023-03-24T15:08:51;6.95;;;5.53;;
43487;SDS011;29078;41.932;25.554;2023-03-24T15:11:22;6.20;;;5.60;;
43487;SDS011;29078;41.932;25.554;2023-03-24T15:13:52;8.10;;;7.20;;
43487;SDS011;29078;41.932;25.554;2023-03-24T15:16:23;15.00;;;13.40;;
43487;SDS011;29078;41.932;25.554;2023-03-24T15:18:52;22.02;;;17.00;;
43487;SDS011;29078;41.932;25.554;2023-03-24T15:21:23;13.65;;;12.23;;
43487;SDS011;29078;41.932;25.554;2023-03-24T15:23:59;17.80;;;15.90;;
43487;SDS011;29078;41.932;25.554;2023-03-24T15:26:27;27.30;;;23.83;;
43487;SDS011;29078;41.932;25.554;2023-03-24T15:29:01;17.92;;;15.70;;
43487;SDS011;29078;41.932;25.554;2023-03-24T15:31:30;16.65;;;14.88;;
43487;SDS011;29078;41.932;25.554;2023-03-24T15:36:32;12.50;;;10.27;;
43487;SDS011;29078;41.932;25.554;2023-03-24T15:38:58;10.88;;;8.45;;
43487;SDS011;29078;41.932;25.554;2023-03-24T15:41:24;11.63;;;9.30;;
43487;SDS011;29078;41.932;25.554;2023-03-24T15:43:50;14.93;;;13.32;;
43487;SDS011;29078;41.932;25.554;2023-03-24T15:46:27;8.40;;;6.45;;
43487;SDS011;29078;41.932;25.554;2023-03-24T15:48:55;9.50;;;8.25;;
43487;SDS011;29078;41.932;25.554;2023-03-24T15:57:16;7.28;;;6.28;;
43487;SDS011;29078;41.932;25.554;2023-03-24T15:59:48;9.45;;;6.80;;
43487;SDS011;29078;41.932;25.554;2023-03-24T16:02:26;10.10;;;7.85;;
43487;SDS011;29078;41.932;25.554;2023-03-24T16:05:00;9.15;;;6.20;;
43487;SDS011;29078;41.932;25.554;2023-03-24T16:07:31;7.30;;;5.78;;
43487;SDS011;29078;41.932;25.554;2023-03-24T16:09:59;7.45;;;5.68;;
43487;SDS011;29078;41.932;25.554;2023-03-24T16:14:56;7.68;;;5.93;;
43487;SDS011;29078;41.932;25.554;2023-03-24T16:17:21;7.55;;;5.97;;
43487;SDS011;29078;41.932;25.554;2023-03-24T16:19:46;7.85;;;5.88;;
43487;SDS011;29078;41.932;25.554;2023-03-24T16:22:12;7.35;;;5.57;;
43487;SDS011;29078;41.932;25.554;2023-03-24T16:24:37;8.73;;;5.85;;
43487;SDS011;29078;41.932;25.554;2023-03-24T16:27:03;9.27;;;6.05;;
43487;SDS011;29078;41.932;25.554;2023-03-24T16:29:28;8.65;;;5.80;;
43487;SDS011;29078;41.932;25.554;2023-03-24T16:31:54;7.60;;;6.15;;
43487;SDS011;29078;41.932;25.554;2023-03-24T16:34:21;9.63;;;6.68;;
43487;SDS011;29078;41.932;25.554;2023-03-24T16:36:47;7.82;;;6.60;;
43487;SDS011;29078;41.932;25.554;2023-03-24T16:39:15;11.95;;;7.82;;
43487;SDS011;29078;41.932;25.554;2023-03-24T16:41:43;13.85;;;8.07;;
43487;SDS011;29078;41.932;25.554;2023-03-24T16:44:09;19.17;;;9.02;;
43487;SDS011;29078;41.932;25.554;2023-03-24T16:46:35;13.38;;;9.30;;
43487;SDS011;29078;41.932;25.554;2023-03-24T16:49:03;17.02;;;11.10;;
43487;SDS011;29078;41.932;25.554;2023-03-24T16:51:29;17.92;;;10.93;;
43487;SDS011;29078;41.932;25.554;2023-03-24T16:53:55;16.23;;;10.77;;
43487;SDS011;29078;41.932;25.554;2023-03-24T16:56:21;18.73;;;12.68;;
43487;SDS011;29078;41.932;25.554;2023-03-24T16:58:47;17.60;;;11.77;;
43487;SDS011;29078;41.932;25.554;2023-03-24T17:01:14;19.98;;;12.45;;
43487;SDS011;29078;41.932;25.554;2023-03-24T17:03:58;23.45;;;16.00;;
43487;SDS011;29078;41.932;25.554;2023-03-24T17:06:30;26.67;;;17.55;;
43487;SDS011;29078;41.932;25.554;2023-03-24T17:08:57;23.63;;;16.35;;
43487;SDS011;29078;41.932;25.554;2023-03-24T17:11:32;22.80;;;16.25;;
43487;SDS011;29078;41.932;25.554;2023-03-24T17:14:00;19.60;;;14.15;;
43487;SDS011;29078;41.932;25.554;2023-03-24T17:16:30;20.80;;;13.93;;
43487;SDS011;29078;41.932;25.554;2023-03-24T17:18:57;20.23;;;15.50;;
43487;SDS011;29078;41.932;25.554;2023-03-24T17:21:22;36.63;;;25.60;;
43487;SDS011;29078;41.932;25.554;2023-03-24T17:23:48;28.05;;;20.77;;
43487;SDS011;29078;41.932;25.554;2023-03-24T17:26:18;34.65;;;22.58;;